createdAt,value
2023-04-20T15:41:57.961Z,6.33
2023-04-20T15:47:26.586Z,6.45
2023-04-20T15:52:55.108Z,6.82
2023-04-20T15:58:23.419Z,6.90
2023-04-20T16:03:52.023Z,6.53
2023-04-20T16:09:20.759Z,8.15
2023-04-20T16:14:49.833Z,8.82
2023-04-20T16:20:18.780Z,7.45
2023-04-20T16:25:46.823Z,9.07
2023-04-20T16:31:14.663Z,8.38
2023-04-20T16:36:43.520Z,9.30
2023-04-20T16:42:10.610Z,9.00
2023-04-20T16:47:37.875Z,8.75
2023-04-20T16:53:05.708Z,9.73
2023-04-20T16:58:36.645Z,7.60
2023-04-20T17:04:21.395Z,9.07
2023-04-20T17:10:00.308Z,8.75
2023-04-20T17:16:20.792Z,9.07
2023-04-20T17:21:48.498Z,8.55
2023-04-20T17:27:16.333Z,9.32
2023-04-20T17:32:44.585Z,8.70
2023-04-20T17:38:11.641Z,8.85
2023-04-20T17:43:40.698Z,10.00
2023-04-20T17:49:07.851Z,10.15
2023-04-20T17:54:35.872Z,10.13
2023-04-20T18:00:04.051Z,10.43
2023-04-20T18:05:39.093Z,11.10
2023-04-20T18:11:07.538Z,10.27
2023-04-20T18:16:34.900Z,9.10
2023-04-20T18:22:02.446Z,10.80
2023-04-20T18:27:30.385Z,11.10
2023-04-20T18:32:58.295Z,11.15
2023-04-20T18:38:25.875Z,10.68
2023-04-20T18:43:54.146Z,10.63
2023-04-20T18:49:22.006Z,10.73
2023-04-20T18:54:49.065Z,11.10
2023-04-20T19:00:16.683Z,10.57
2023-04-20T19:05:44.041Z,11.70
2023-04-20T19:11:12.266Z,11.40
2023-04-20T19:16:39.875Z,11.60
2023-04-20T19:22:07.195Z,12.93
2023-04-20T19:27:34.954Z,13.40
2023-04-20T19:33:07.408Z,14.02
2023-04-20T19:38:37.697Z,13.60
2023-04-20T19:44:07.169Z,14.13
2023-04-20T19:49:35.503Z,13.65
2023-04-20T19:55:04.894Z,13.60
2023-04-20T20:00:32.345Z,14.90
2023-04-20T20:06:00.928Z,13.98
2023-04-20T20:11:28.766Z,15.05
2023-04-20T20:16:58.830Z,15.70
2023-04-20T20:22:27.404Z,15.68
2023-04-20T20:27:55.145Z,15.45
2023-04-20T20:33:22.547Z,15.07
2023-04-20T20:38:54.278Z,16.08
2023-04-20T20:44:22.407Z,15.90
2023-04-20T20:49:50.334Z,15.88
2023-04-20T20:55:18.399Z,16.17
2023-04-20T21:00:47.594Z,16.27
2023-04-20T21:06:16.396Z,16.85
2023-04-20T21:11:44.018Z,15.80
2023-04-20T21:17:11.279Z,16.98
2023-04-20T21:22:38.697Z,15.82
2023-04-20T21:28:06.140Z,16.23
2023-04-20T21:33:36.515Z,16.48
2023-04-20T21:39:04.264Z,16.75
2023-04-20T21:44:31.440Z,18.25
2023-04-20T21:49:58.277Z,18.30
2023-04-20T21:55:25.694Z,17.77
2023-04-20T22:00:53.450Z,19.73
2023-04-20T22:06:20.729Z,21.33
2023-04-20T22:11:50.158Z,22.45
2023-04-20T22:17:17.958Z,21.25
2023-04-20T22:22:46.745Z,22.35
2023-04-20T22:28:14.679Z,22.80
2023-04-20T22:33:42.593Z,25.90
2023-04-20T22:39:09.890Z,28.48
2023-04-20T22:44:37.452Z,30.17
2023-04-20T22:50:06.278Z,26.90
2023-04-20T22:55:33.374Z,28.10
2023-04-20T23:01:01.142Z,26.23
2023-04-20T23:06:29.902Z,25.15
2023-04-20T23:12:00.068Z,23.75
2023-04-20T23:17:29.048Z,23.45
2023-04-20T23:22:56.835Z,23.63
2023-04-20T23:28:24.339Z,23.58
2023-04-20T23:33:51.835Z,23.90
2023-04-20T23:39:20.979Z,25.60
2023-04-20T23:44:48.663Z,23.30
2023-04-20T23:50:16.088Z,24.38
2023-04-20T23:55:48.423Z,23.70
